sensor_id;sensor_type;location;lat;lon;timestamp;P1;durP1;ratioP1;P2;durP2;ratioP2
44147;SDS011;29810;55.848;37.368;2022-10-01T00:00:23;41.35;;;29.80;;
44147;SDS011;29810;55.848;37.368;2022-10-01T00:03:27;43.40;;;28.98;;
44147;SDS011;29810;55.848;37.368;2022-10-01T00:06:29;46.97;;;28.98;;
44147;SDS011;29810;55.848;37.368;2022-10-01T00:09:31;40.15;;;28.52;;
44147;SDS011;29810;55.848;37.368;2022-10-01T00:12:32;43.38;;;30.17;;
44147;SDS011;29810;55.848;37.368;2022-10-01T00:15:37;41.20;;;28.67;;
44147;SDS011;29810;55.848;37.368;2022-10-01T00:18:40;42.85;;;28.55;;
44147;SDS011;29810;55.848;37.368;2022-10-01T00:21:43;40.45;;;27.35;;
44147;SDS011;29810;55.848;37.368;2022-10-01T00:24:44;35.95;;;26.80;;
44147;SDS011;29810;55.848;37.368;2022-10-01T00:27:47;38.03;;;26.55;;
44147;SDS011;29810;55.848;37.368;2022-10-01T00:30:49;40.55;;;28.95;;
44147;SDS011;29810;55.848;37.368;2022-10-01T00:33:54;37.65;;;27.98;;
44147;SDS011;29810;55.848;37.368;2022-10-01T00:36:58;39.28;;;30.23;;
44147;SDS011;29810;55.848;37.368;2022-10-01T00:39:59;38.70;;;30.08;;
44147;SDS011;29810;55.848;37.368;2022-10-01T00:43:17;41.90;;;30.95;;
44147;SDS011;29810;55.848;37.368;2022-10-01T00:49:42;39.65;;;30.15;;
44147;SDS011;29810;55.848;37.368;2022-10-01T00:52:44;38.95;;;29.20;;
44147;SDS011;29810;55.848;37.368;2022-10-01T00:55:52;39.00;;;28.85;;
44147;SDS011;29810;55.848;37.368;2022-10-01T00:58:57;38.95;;;27.83;;
44147;SDS011;29810;55.848;37.368;2022-10-01T01:02:00;37.05;;;28.02;;
44147;SDS011;29810;55.848;37.368;2022-10-01T01:05:01;34.53;;;26.77;;
44147;SDS011;29810;55.848;37.368;2022-10-01T01:08:04;37.22;;;27.58;;
44147;SDS011;29810;55.848;37.368;2022-10-01T01:21:35;34.63;;;25.73;;
44147;SDS011;29810;55.848;37.368;2022-10-01T01:31:34;36.30;;;26.62;;
44147;SDS011;29810;55.848;37.368;2022-10-01T01:34:40;35.08;;;26.40;;
44147;SDS011;29810;55.848;37.368;2022-10-01T01:37:47;36.28;;;26.83;;
44147;SDS011;29810;55.848;37.368;2022-10-01T01:40:54;39.15;;;27.25;;
44147;SDS011;29810;55.848;37.368;2022-10-01T01:44:00;36.58;;;26.30;;
44147;SDS011;29810;55.848;37.368;2022-10-01T01:47:08;37.30;;;26.77;;
44147;SDS011;29810;55.848;37.368;2022-10-01T01:50:12;38.58;;;27.25;;
44147;SDS011;29810;55.848;37.368;2022-10-01T01:53:16;38.67;;;27.33;;
44147;SDS011;29810;55.848;37.368;2022-10-01T01:56:18;38.65;;;27.25;;
44147;SDS011;29810;55.848;37.368;2022-10-01T01:59:19;34.90;;;26.60;;
44147;SDS011;29810;55.848;37.368;2022-10-01T02:02:23;39.65;;;27.83;;
44147;SDS011;29810;55.848;37.368;2022-10-01T02:05:30;36.70;;;25.65;;
44147;SDS011;29810;55.848;37.368;2022-10-01T02:08:46;34.13;;;26.10;;
44147;SDS011;29810;55.848;37.368;2022-10-01T02:12:06;34.13;;;25.52;;
44147;SDS011;29810;55.848;37.368;2022-10-01T02:22:11;34.45;;;24.50;;
44147;SDS011;29810;55.848;37.368;2022-10-01T02:25:27;32.70;;;23.07;;
44147;SDS011;29810;55.848;37.368;2022-10-01T02:28:34;36.70;;;24.80;;
44147;SDS011;29810;55.848;37.368;2022-10-01T02:31:39;35.70;;;24.05;;
44147;SDS011;29810;55.848;37.368;2022-10-01T02:34:41;37.50;;;26.17;;
44147;SDS011;29810;55.848;37.368;2022-10-01T02:37:45;37.17;;;24.60;;
44147;SDS011;29810;55.848;37.368;2022-10-01T02:43:56;39.33;;;24.85;;
44147;SDS011;29810;55.848;37.368;2022-10-01T02:47:02;42.72;;;25.05;;
44147;SDS011;29810;55.848;37.368;2022-10-01T02:50:08;50.80;;;26.15;;
44147;SDS011;29810;55.848;37.368;2022-10-01T02:53:15;46.55;;;27.15;;
44147;SDS011;29810;55.848;37.368;2022-10-01T02:56:21;51.10;;;28.58;;
44147;SDS011;29810;55.848;37.368;2022-10-01T02:59:44;50.85;;;28.98;;
44147;SDS011;29810;55.848;37.368;2022-10-01T03:02:46;59.22;;;29.37;;
44147;SDS011;29810;55.848;37.368;2022-10-01T03:05:48;50.85;;;29.23;;
44147;SDS011;29810;55.848;37.368;2022-10-01T03:08:49;53.97;;;29.23;;
44147;SDS011;29810;55.848;37.368;2022-10-01T03:11:51;56.05;;;28.80;;
44147;SDS011;29810;55.848;37.368;2022-10-01T03:14:52;67.72;;;31.70;;
44147;SDS011;29810;55.848;37.368;2022-10-01T03:17:54;53.67;;;27.40;;
44147;SDS011;29810;55.848;37.368;2022-10-01T03:20:56;66.32;;;29.52;;
44147;SDS011;29810;55.848;37.368;2022-10-01T03:23:57;63.33;;;29.52;;
44147;SDS011;29810;55.848;37.368;2022-10-01T03:26:59;55.92;;;27.35;;
44147;SDS011;29810;55.848;37.368;2022-10-01T03:30:00;55.00;;;28.52;;
44147;SDS011;29810;55.848;37.368;2022-10-01T03:33:04;51.13;;;26.27;;
44147;SDS011;29810;55.848;37.368;2022-10-01T03:36:05;46.33;;;23.85;;
44147;SDS011;29810;55.848;37.368;2022-10-01T03:39:07;52.70;;;25.45;;
44147;SDS011;29810;55.848;37.368;2022-10-01T03:42:08;54.42;;;25.92;;
44147;SDS011;29810;55.848;37.368;2022-10-01T03:45:10;64.87;;;26.30;;
44147;SDS011;29810;55.848;37.368;2022-10-01T03:48:12;62.95;;;27.17;;
44147;SDS011;29810;55.848;37.368;2022-10-01T03:51:14;79.70;;;28.27;;
44147;SDS011;29810;55.848;37.368;2022-10-01T03:54:15;59.80;;;26.90;;
44147;SDS011;29810;55.848;37.368;2022-10-01T03:57:18;59.17;;;25.90;;
44147;SDS011;29810;55.848;37.368;2022-10-01T04:00:19;48.17;;;24.87;;
44147;SDS011;29810;55.848;37.368;2022-10-01T04:03:21;47.15;;;24.95;;
44147;SDS011;29810;55.848;37.368;2022-10-01T04:06:22;42.15;;;22.83;;
44147;SDS011;29810;55.848;37.368;2022-10-01T04:09:24;34.95;;;20.37;;
44147;SDS011;29810;55.848;37.368;2022-10-01T04:12:25;38.97;;;21.48;;
44147;SDS011;29810;55.848;37.368;2022-10-01T04:15:27;35.05;;;21.98;;
44147;SDS011;29810;55.848;37.368;2022-10-01T04:18:28;33.42;;;20.73;;
44147;SDS011;29810;55.848;37.368;2022-10-01T04:21:31;33.75;;;20.00;;
44147;SDS011;29810;55.848;37.368;2022-10-01T04:24:32;30.00;;;18.92;;
44147;SDS011;29810;55.848;37.368;2022-10-01T04:27:34;32.95;;;20.05;;
44147;SDS011;29810;55.848;37.368;2022-10-01T04:30:36;30.90;;;18.40;;
44147;SDS011;29810;55.848;37.368;2022-10-01T04:33:40;30.62;;;18.05;;
44147;SDS011;29810;55.848;37.368;2022-10-01T04:36:41;27.13;;;18.00;;
44147;SDS011;29810;55.848;37.368;2022-10-01T04:39:43;27.62;;;16.52;;
44147;SDS011;29810;55.848;37.368;2022-10-01T04:42:45;33.25;;;18.77;;
44147;SDS011;29810;55.848;37.368;2022-10-01T04:45:47;27.35;;;17.55;;
44147;SDS011;29810;55.848;37.368;2022-10-01T04:48:48;24.67;;;17.08;;
44147;SDS011;29810;55.848;37.368;2022-10-01T04:51:50;28.80;;;18.08;;
44147;SDS011;29810;55.848;37.368;2022-10-01T04:54:51;27.92;;;17.52;;
44147;SDS011;29810;55.848;37.368;2022-10-01T04:57:53;28.58;;;17.75;;
44147;SDS011;29810;55.848;37.368;2022-10-01T05:00:54;32.70;;;18.65;;
44147;SDS011;29810;55.848;37.368;2022-10-01T05:03:56;31.85;;;18.17;;
44147;SDS011;29810;55.848;37.368;2022-10-01T05:06:58;38.03;;;19.85;;
44147;SDS011;29810;55.848;37.368;2022-10-01T05:10:00;31.40;;;19.02;;
44147;SDS011;29810;55.848;37.368;2022-10-01T05:13:01;42.58;;;21.50;;
44147;SDS011;29810;55.848;37.368;2022-10-01T05:16:03;43.20;;;23.10;;
44147;SDS011;29810;55.848;37.368;2022-10-01T05:19:04;43.95;;;22.35;;
44147;SDS011;29810;55.848;37.368;2022-10-01T05:22:06;48.10;;;24.25;;
44147;SDS011;29810;55.848;37.368;2022-10-01T05:25:08;56.10;;;25.42;;
44147;SDS011;29810;55.848;37.368;2022-10-01T05:28:11;87.78;;;29.00;;
44147;SDS011;29810;55.848;37.368;2022-10-01T05:31:13;289.58;;;30.65;;
44147;SDS011;29810;55.848;37.368;2022-10-01T05:34:16;291.02;;;33.08;;
44147;SDS011;29810;55.848;37.368;2022-10-01T05:37:17;261.05;;;30.17;;
44147;SDS011;29810;55.848;37.368;2022-10-01T05:40:20;658.25;;;40.40;;
44147;SDS011;29810;55.848;37.368;2022-10-01T05:43:21;404.40;;;31.87;;
44147;SDS011;29810;55.848;37.368;2022-10-01T05:46:25;1347.78;;;54.72;;
44147;SDS011;29810;55.848;37.368;2022-10-01T05:49:27;784.28;;;39.08;;
44147;SDS011;29810;55.848;37.368;2022-10-01T05:52:29;990.12;;;44.95;;
44147;SDS011;29810;55.848;37.368;2022-10-01T05:55:31;739.42;;;39.65;;
44147;SDS011;29810;55.848;37.368;2022-10-01T05:58:34;617.83;;;33.58;;
44147;SDS011;29810;55.848;37.368;2022-10-01T06:01:36;710.72;;;38.47;;
44147;SDS011;29810;55.848;37.368;2022-10-01T06:04:38;1169.72;;;46.92;;
44147;SDS011;29810;55.848;37.368;2022-10-01T06:07:39;1259.75;;;46.45;;
44147;SDS011;29810;55.848;37.368;2022-10-01T06:10:41;1225.75;;;46.45;;
44147;SDS011;29810;55.848;37.368;2022-10-01T06:13:43;1204.15;;;41.60;;
44147;SDS011;29810;55.848;37.368;2022-10-01T06:16:46;289.90;;;25.52;;
44147;SDS011;29810;55.848;37.368;2022-10-01T06:19:48;351.90;;;26.10;;
44147;SDS011;29810;55.848;37.368;2022-10-01T06:22:52;41.05;;;21.20;;
44147;SDS011;29810;55.848;37.368;2022-10-01T06:25:55;42.22;;;21.50;;
44147;SDS011;29810;55.848;37.368;2022-10-01T06:28:59;54.00;;;23.50;;
44147;SDS011;29810;55.848;37.368;2022-10-01T06:32:00;50.85;;;21.75;;
44147;SDS011;29810;55.848;37.368;2022-10-01T06:35:02;37.00;;;21.45;;
44147;SDS011;29810;55.848;37.368;2022-10-01T06:38:04;46.25;;;21.15;;
44147;SDS011;29810;55.848;37.368;2022-10-01T06:41:06;46.40;;;19.83;;
44147;SDS011;29810;55.848;37.368;2022-10-01T06:44:09;35.63;;;21.65;;
44147;SDS011;29810;55.848;37.368;2022-10-01T06:47:11;36.78;;;21.05;;
44147;SDS011;29810;55.848;37.368;2022-10-01T06:50:12;39.60;;;21.45;;
44147;SDS011;29810;55.848;37.368;2022-10-01T06:53:14;34.67;;;20.08;;
44147;SDS011;29810;55.848;37.368;2022-10-01T06:56:17;27.58;;;18.95;;
44147;SDS011;29810;55.848;37.368;2022-10-01T06:59:18;27.58;;;18.12;;
44147;SDS011;29810;55.848;37.368;2022-10-01T07:02:21;26.52;;;17.67;;
44147;SDS011;29810;55.848;37.368;2022-10-01T07:05:29;27.30;;;18.12;;
44147;SDS011;29810;55.848;37.368;2022-10-01T07:08:30;44.40;;;18.67;;
44147;SDS011;29810;55.848;37.368;2022-10-01T07:11:35;46.05;;;19.42;;
44147;SDS011;29810;55.848;37.368;2022-10-01T07:14:39;25.37;;;17.03;;
44147;SDS011;29810;55.848;37.368;2022-10-01T07:17:44;27.17;;;18.42;;
44147;SDS011;29810;55.848;37.368;2022-10-01T07:20:48;24.20;;;16.35;;
44147;SDS011;29810;55.848;37.368;2022-10-01T07:23:49;21.98;;;15.70;;
44147;SDS011;29810;55.848;37.368;2022-10-01T07:26:51;20.67;;;15.48;;
44147;SDS011;29810;55.848;37.368;2022-10-01T07:29:55;30.17;;;17.25;;
44147;SDS011;29810;55.848;37.368;2022-10-01T07:32:58;47.30;;;17.20;;
44147;SDS011;29810;55.848;37.368;2022-10-01T07:36:01;32.75;;;18.33;;
44147;SDS011;29810;55.848;37.368;2022-10-01T07:39:03;25.10;;;16.95;;
44147;SDS011;29810;55.848;37.368;2022-10-01T07:42:05;33.45;;;15.90;;
44147;SDS011;29810;55.848;37.368;2022-10-01T07:45:06;20.88;;;14.85;;
44147;SDS011;29810;55.848;37.368;2022-10-01T07:48:09;27.17;;;15.00;;
44147;SDS011;29810;55.848;37.368;2022-10-01T07:51:10;30.80;;;15.88;;
44147;SDS011;29810;55.848;37.368;2022-10-01T07:54:12;20.73;;;14.82;;
44147;SDS011;29810;55.848;37.368;2022-10-01T07:57:13;20.73;;;14.02;;
44147;SDS011;29810;55.848;37.368;2022-10-01T08:00:15;27.95;;;16.02;;
44147;SDS011;29810;55.848;37.368;2022-10-01T08:03:19;24.45;;;16.20;;
44147;SDS011;29810;55.848;37.368;2022-10-01T08:06:20;27.95;;;17.87;;
44147;SDS011;29810;55.848;37.368;2022-10-01T08:09:22;32.38;;;17.25;;
44147;SDS011;29810;55.848;37.368;2022-10-01T08:12:24;42.47;;;18.15;;
44147;SDS011;29810;55.848;37.368;2022-10-01T08:15:30;33.05;;;18.52;;
44147;SDS011;29810;55.848;37.368;2022-10-01T08:18:32;29.42;;;17.30;;
44147;SDS011;29810;55.848;37.368;2022-10-01T08:21:34;39.88;;;17.48;;
44147;SDS011;29810;55.848;37.368;2022-10-01T08:24:36;51.42;;;20.12;;
44147;SDS011;29810;55.848;37.368;2022-10-01T08:27:39;72.60;;;21.40;;
44147;SDS011;29810;55.848;37.368;2022-10-01T08:30:40;65.05;;;22.25;;
44147;SDS011;29810;55.848;37.368;2022-10-01T08:33:43;48.22;;;22.83;;
44147;SDS011;29810;55.848;37.368;2022-10-01T08:36:48;46.55;;;23.10;;
44147;SDS011;29810;55.848;37.368;2022-10-01T08:39:52;51.90;;;23.70;;
44147;SDS011;29810;55.848;37.368;2022-10-01T08:43:04;45.35;;;23.77;;
44147;SDS011;29810;55.848;37.368;2022-10-01T08:46:14;40.78;;;24.02;;
44147;SDS011;29810;55.848;37.368;2022-10-01T08:49:53;45.83;;;26.87;;
44147;SDS011;29810;55.848;37.368;2022-10-01T08:52:51;49.85;;;26.02;;
44147;SDS011;29810;55.848;37.368;2022-10-01T08:55:58;51.37;;;29.70;;
44147;SDS011;29810;55.848;37.368;2022-10-01T08:59:08;44.90;;;26.80;;
44147;SDS011;29810;55.848;37.368;2022-10-01T09:02:22;43.72;;;27.65;;
44147;SDS011;29810;55.848;37.368;2022-10-01T09:05:29;47.37;;;27.50;;
44147;SDS011;29810;55.848;37.368;2022-10-01T09:08:42;50.65;;;30.67;;
44147;SDS011;29810;55.848;37.368;2022-10-01T09:21:57;51.58;;;32.85;;
44147;SDS011;29810;55.848;37.368;2022-10-01T09:28:18;48.78;;;31.50;;
44147;SDS011;29810;55.848;37.368;2022-10-01T09:31:32;51.37;;;32.50;;
44147;SDS011;29810;55.848;37.368;2022-10-01T09:34:40;48.00;;;33.00;;
44147;SDS011;29810;55.848;37.368;2022-10-01T09:37:46;49.47;;;34.53;;
44147;SDS011;29810;55.848;37.368;2022-10-01T09:40:54;46.15;;;34.47;;
44147;SDS011;29810;55.848;37.368;2022-10-01T09:43:57;47.20;;;34.63;;
44147;SDS011;29810;55.848;37.368;2022-10-01T09:46:58;45.33;;;32.92;;
44147;SDS011;29810;55.848;37.368;2022-10-01T09:50:02;43.83;;;33.20;;
44147;SDS011;29810;55.848;37.368;2022-10-01T09:53:09;47.03;;;33.97;;
44147;SDS011;29810;55.848;37.368;2022-10-01T09:56:20;44.20;;;33.47;;
44147;SDS011;29810;55.848;37.368;2022-10-01T09:59:28;43.05;;;34.22;;
44147;SDS011;29810;55.848;37.368;2022-10-01T10:02:42;45.05;;;33.88;;
44147;SDS011;29810;55.848;37.368;2022-10-01T10:05:46;46.63;;;35.88;;
44147;SDS011;29810;55.848;37.368;2022-10-01T10:08:49;44.28;;;33.97;;
44147;SDS011;29810;55.848;37.368;2022-10-01T10:11:52;46.90;;;35.15;;
44147;SDS011;29810;55.848;37.368;2022-10-01T10:15:04;46.50;;;34.95;;
44147;SDS011;29810;55.848;37.368;2022-10-01T10:18:11;45.00;;;34.85;;
44147;SDS011;29810;55.848;37.368;2022-10-01T10:21:20;45.65;;;36.10;;
44147;SDS011;29810;55.848;37.368;2022-10-01T10:24:29;45.85;;;36.42;;
44147;SDS011;29810;55.848;37.368;2022-10-01T10:27:32;51.45;;;37.40;;
44147;SDS011;29810;55.848;37.368;2022-10-01T10:30:36;49.10;;;36.05;;
44147;SDS011;29810;55.848;37.368;2022-10-01T10:33:43;46.75;;;36.47;;
44147;SDS011;29810;55.848;37.368;2022-10-01T10:36:47;55.63;;;43.28;;
44147;SDS011;29810;55.848;37.368;2022-10-01T10:39:49;48.42;;;37.70;;
44147;SDS011;29810;55.848;37.368;2022-10-01T10:42:53;50.15;;;37.35;;
44147;SDS011;29810;55.848;37.368;2022-10-01T10:45:56;48.90;;;37.33;;
44147;SDS011;29810;55.848;37.368;2022-10-01T10:49:00;51.65;;;37.38;;
44147;SDS011;29810;55.848;37.368;2022-10-01T10:55:19;45.70;;;34.65;;
44147;SDS011;29810;55.848;37.368;2022-10-01T10:58:24;53.00;;;36.45;;
44147;SDS011;29810;55.848;37.368;2022-10-01T11:01:31;52.78;;;38.53;;
44147;SDS011;29810;55.848;37.368;2022-10-01T11:07:34;55.45;;;37.83;;
44147;SDS011;29810;55.848;37.368;2022-10-01T11:14:05;56.88;;;36.80;;
44147;SDS011;29810;55.848;37.368;2022-10-01T11:20:42;54.97;;;38.15;;
44147;SDS011;29810;55.848;37.368;2022-10-01T11:27:31;55.00;;;38.15;;
44147;SDS011;29810;55.848;37.368;2022-10-01T11:39:54;53.63;;;38.15;;
44147;SDS011;29810;55.848;37.368;2022-10-01T11:43:02;52.22;;;38.05;;
44147;SDS011;29810;55.848;37.368;2022-10-01T11:46:17;67.50;;;39.03;;
44147;SDS011;29810;55.848;37.368;2022-10-01T11:49:44;60.97;;;39.40;;
44147;SDS011;29810;55.848;37.368;2022-10-01T11:53:22;53.67;;;37.70;;
44147;SDS011;29810;55.848;37.368;2022-10-01T11:56:27;57.42;;;39.80;;
44147;SDS011;29810;55.848;37.368;2022-10-01T11:59:53;56.50;;;38.40;;
44147;SDS011;29810;55.848;37.368;2022-10-01T12:03:00;52.90;;;37.55;;
44147;SDS011;29810;55.848;37.368;2022-10-01T12:06:07;56.75;;;39.60;;
44147;SDS011;29810;55.848;37.368;2022-10-01T12:12:53;49.65;;;36.90;;
44147;SDS011;29810;55.848;37.368;2022-10-01T12:16:05;49.90;;;37.35;;
44147;SDS011;29810;55.848;37.368;2022-10-01T12:19:17;48.55;;;37.15;;
44147;SDS011;29810;55.848;37.368;2022-10-01T12:22:23;45.15;;;34.92;;
44147;SDS011;29810;55.848;37.368;2022-10-01T12:25:47;41.58;;;31.50;;
44147;SDS011;29810;55.848;37.368;2022-10-01T12:28:56;40.47;;;31.05;;
44147;SDS011;29810;55.848;37.368;2022-10-01T13:11:46;28.30;;;20.95;;
44147;SDS011;29810;55.848;37.368;2022-10-01T13:14:50;23.12;;;19.55;;
44147;SDS011;29810;55.848;37.368;2022-10-01T13:18:04;21.55;;;18.73;;
44147;SDS011;29810;55.848;37.368;2022-10-01T13:27:57;20.80;;;18.02;;
44147;SDS011;29810;55.848;37.368;2022-10-01T13:31:13;20.60;;;17.70;;
44147;SDS011;29810;55.848;37.368;2022-10-01T13:35:19;23.33;;;18.25;;
44147;SDS011;29810;55.848;37.368;2022-10-01T13:37:46;20.77;;;18.05;;
44147;SDS011;29810;55.848;37.368;2022-10-01T13:40:56;21.98;;;18.37;;
44147;SDS011;29810;55.848;37.368;2022-10-01T13:47:12;21.87;;;18.83;;
44147;SDS011;29810;55.848;37.368;2022-10-01T13:50:21;23.90;;;18.33;;
44147;SDS011;29810;55.848;37.368;2022-10-01T13:53:25;28.87;;;19.00;;
44147;SDS011;29810;55.848;37.368;2022-10-01T13:56:30;25.12;;;18.73;;
44147;SDS011;29810;55.848;37.368;2022-10-01T13:59:36;21.35;;;18.12;;
44147;SDS011;29810;55.848;37.368;2022-10-01T14:02:40;24.65;;;18.92;;
44147;SDS011;29810;55.848;37.368;2022-10-01T14:05:45;26.58;;;20.08;;
44147;SDS011;29810;55.848;37.368;2022-10-01T14:08:53;23.95;;;18.50;;
44147;SDS011;29810;55.848;37.368;2022-10-01T14:12:09;27.70;;;18.35;;
44147;SDS011;29810;55.848;37.368;2022-10-01T14:15:42;28.20;;;19.33;;
44147;SDS011;29810;55.848;37.368;2022-10-01T14:19:03;28.92;;;17.48;;
44147;SDS011;29810;55.848;37.368;2022-10-01T14:25:17;21.55;;;17.58;;
44147;SDS011;29810;55.848;37.368;2022-10-01T14:38:21;17.45;;;15.13;;
44147;SDS011;29810;55.848;37.368;2022-10-01T14:41:23;19.05;;;16.42;;
44147;SDS011;29810;55.848;37.368;2022-10-01T14:44:28;20.60;;;16.37;;
44147;SDS011;29810;55.848;37.368;2022-10-01T14:47:36;18.40;;;16.42;;
44147;SDS011;29810;55.848;37.368;2022-10-01T14:50:38;18.45;;;16.12;;
44147;SDS011;29810;55.848;37.368;2022-10-01T14:53:40;20.55;;;16.70;;
44147;SDS011;29810;55.848;37.368;2022-10-01T14:56:43;18.67;;;16.67;;
44147;SDS011;29810;55.848;37.368;2022-10-01T14:59:45;20.45;;;16.87;;
44147;SDS011;29810;55.848;37.368;2022-10-01T15:02:50;21.80;;;16.67;;
44147;SDS011;29810;55.848;37.368;2022-10-01T15:06:14;19.05;;;16.62;;
44147;SDS011;29810;55.848;37.368;2022-10-01T15:09:17;18.65;;;16.73;;
44147;SDS011;29810;55.848;37.368;2022-10-01T15:12:21;20.83;;;16.65;;
44147;SDS011;29810;55.848;37.368;2022-10-01T15:15:28;19.27;;;17.27;;
44147;SDS011;29810;55.848;37.368;2022-10-01T15:18:40;19.37;;;17.15;;
44147;SDS011;29810;55.848;37.368;2022-10-01T15:24:50;20.42;;;16.87;;
44147;SDS011;29810;55.848;37.368;2022-10-01T15:27:54;21.08;;;17.40;;
44147;SDS011;29810;55.848;37.368;2022-10-01T15:31:00;21.85;;;17.70;;
44147;SDS011;29810;55.848;37.368;2022-10-01T15:34:05;22.27;;;17.50;;
44147;SDS011;29810;55.848;37.368;2022-10-01T15:40:22;26.48;;;19.10;;
44147;SDS011;29810;55.848;37.368;2022-10-01T15:46:34;24.55;;;19.50;;
44147;SDS011;29810;55.848;37.368;2022-10-01T15:49:35;25.60;;;20.65;;
44147;SDS011;29810;55.848;37.368;2022-10-01T15:52:44;28.10;;;23.05;;
44147;SDS011;29810;55.848;37.368;2022-10-01T15:55:55;28.35;;;22.90;;
44147;SDS011;29810;55.848;37.368;2022-10-01T15:59:08;31.30;;;23.35;;
44147;SDS011;29810;55.848;37.368;2022-10-01T16:02:17;31.97;;;23.67;;
44147;SDS011;29810;55.848;37.368;2022-10-01T16:05:25;30.20;;;23.65;;
44147;SDS011;29810;55.848;37.368;2022-10-01T16:08:32;36.08;;;24.42;;
44147;SDS011;29810;55.848;37.368;2022-10-01T16:11:57;30.52;;;23.55;;
44147;SDS011;29810;55.848;37.368;2022-10-01T16:15:00;32.83;;;23.95;;
44147;SDS011;29810;55.848;37.368;2022-10-01T16:18:18;32.70;;;24.35;;
44147;SDS011;29810;55.848;37.368;2022-10-01T16:21:22;27.77;;;23.85;;
44147;SDS011;29810;55.848;37.368;2022-10-01T16:24:25;29.08;;;22.35;;
44147;SDS011;29810;55.848;37.368;2022-10-01T16:30:49;27.52;;;21.80;;
44147;SDS011;29810;55.848;37.368;2022-10-01T16:33:51;28.48;;;22.40;;
44147;SDS011;29810;55.848;37.368;2022-10-01T16:36:53;24.48;;;19.45;;
44147;SDS011;29810;55.848;37.368;2022-10-01T16:39:55;28.15;;;22.40;;
44147;SDS011;29810;55.848;37.368;2022-10-01T16:42:57;30.92;;;22.33;;
44147;SDS011;29810;55.848;37.368;2022-10-01T16:46:00;27.50;;;21.02;;
44147;SDS011;29810;55.848;37.368;2022-10-01T16:49:04;24.50;;;21.15;;
44147;SDS011;29810;55.848;37.368;2022-10-01T16:52:11;29.95;;;22.13;;
44147;SDS011;29810;55.848;37.368;2022-10-01T16:55:20;29.67;;;23.00;;
44147;SDS011;29810;55.848;37.368;2022-10-01T16:58:22;28.25;;;22.65;;
44147;SDS011;29810;55.848;37.368;2022-10-01T17:01:24;28.42;;;22.92;;
44147;SDS011;29810;55.848;37.368;2022-10-01T17:04:26;29.83;;;24.77;;
44147;SDS011;29810;55.848;37.368;2022-10-01T17:07:31;30.75;;;23.73;;
44147;SDS011;29810;55.848;37.368;2022-10-01T17:10:34;32.35;;;25.02;;
44147;SDS011;29810;55.848;37.368;2022-10-01T17:13:39;28.60;;;22.83;;
44147;SDS011;29810;55.848;37.368;2022-10-01T17:16:41;29.83;;;23.70;;
44147;SDS011;29810;55.848;37.368;2022-10-01T17:19:43;27.70;;;21.90;;
44147;SDS011;29810;55.848;37.368;2022-10-01T17:22:45;29.17;;;22.98;;
44147;SDS011;29810;55.848;37.368;2022-10-01T17:25:47;30.80;;;23.98;;
44147;SDS011;29810;55.848;37.368;2022-10-01T17:28:49;31.12;;;23.55;;
44147;SDS011;29810;55.848;37.368;2022-10-01T17:31:51;32.45;;;24.37;;
44147;SDS011;29810;55.848;37.368;2022-10-01T17:34:53;32.90;;;23.77;;
44147;SDS011;29810;55.848;37.368;2022-10-01T17:37:54;32.75;;;23.77;;
44147;SDS011;29810;55.848;37.368;2022-10-01T17:40:58;30.62;;;24.02;;
44147;SDS011;29810;55.848;37.368;2022-10-01T17:44:00;29.52;;;22.67;;
44147;SDS011;29810;55.848;37.368;2022-10-01T17:47:02;28.77;;;22.17;;
44147;SDS011;29810;55.848;37.368;2022-10-01T17:50:04;33.70;;;22.08;;
44147;SDS011;29810;55.848;37.368;2022-10-01T17:53:07;29.52;;;21.70;;
44147;SDS011;29810;55.848;37.368;2022-10-01T17:56:12;29.50;;;22.75;;
44147;SDS011;29810;55.848;37.368;2022-10-01T18:02:16;30.60;;;22.13;;
44147;SDS011;29810;55.848;37.368;2022-10-01T18:05:18;32.20;;;23.27;;
44147;SDS011;29810;55.848;37.368;2022-10-01T18:08:20;29.73;;;22.08;;
44147;SDS011;29810;55.848;37.368;2022-10-01T18:11:23;29.75;;;23.38;;
44147;SDS011;29810;55.848;37.368;2022-10-01T18:14:25;28.70;;;22.50;;
44147;SDS011;29810;55.848;37.368;2022-10-01T18:17:27;30.17;;;23.58;;
44147;SDS011;29810;55.848;37.368;2022-10-01T18:20:31;30.52;;;22.70;;
44147;SDS011;29810;55.848;37.368;2022-10-01T18:23:34;31.60;;;23.55;;
44147;SDS011;29810;55.848;37.368;2022-10-01T18:26:39;34.97;;;22.52;;
44147;SDS011;29810;55.848;37.368;2022-10-01T18:29:41;30.15;;;23.67;;
44147;SDS011;29810;55.848;37.368;2022-10-01T18:32:47;31.73;;;24.05;;
44147;SDS011;29810;55.848;37.368;2022-10-01T18:35:52;28.15;;;22.02;;
44147;SDS011;29810;55.848;37.368;2022-10-01T18:39:12;32.25;;;24.17;;
44147;SDS011;29810;55.848;37.368;2022-10-01T18:42:26;28.35;;;22.67;;
44147;SDS011;29810;55.848;37.368;2022-10-01T18:48:58;39.90;;;25.20;;
44147;SDS011;29810;55.848;37.368;2022-10-01T18:59:00;34.75;;;26.73;;
44147;SDS011;29810;55.848;37.368;2022-10-01T19:09:11;33.60;;;26.02;;
44147;SDS011;29810;55.848;37.368;2022-10-01T19:22:50;22.17;;;18.15;;
44147;SDS011;29810;55.848;37.368;2022-10-01T19:26:11;21.10;;;15.80;;
44147;SDS011;29810;55.848;37.368;2022-10-01T19:32:41;16.05;;;12.63;;
44147;SDS011;29810;55.848;37.368;2022-10-01T19:35:52;17.12;;;12.48;;
44147;SDS011;29810;55.848;37.368;2022-10-01T19:38:58;14.75;;;11.20;;
44147;SDS011;29810;55.848;37.368;2022-10-01T19:45:59;14.80;;;12.13;;
44147;SDS011;29810;55.848;37.368;2022-10-01T19:49:19;15.23;;;12.43;;
44147;SDS011;29810;55.848;37.368;2022-10-01T19:52:35;15.55;;;13.02;;
44147;SDS011;29810;55.848;37.368;2022-10-01T19:55:40;16.77;;;13.57;;
44147;SDS011;29810;55.848;37.368;2022-10-01T19:58:41;18.00;;;14.00;;
44147;SDS011;29810;55.848;37.368;2022-10-01T20:01:55;20.58;;;15.20;;
44147;SDS011;29810;55.848;37.368;2022-10-01T20:05:05;20.83;;;15.35;;
44147;SDS011;29810;55.848;37.368;2022-10-01T20:08:17;20.05;;;16.33;;
44147;SDS011;29810;55.848;37.368;2022-10-01T20:11:30;20.73;;;16.25;;
44147;SDS011;29810;55.848;37.368;2022-10-01T20:14:54;18.23;;;16.00;;
44147;SDS011;29810;55.848;37.368;2022-10-01T20:21:49;19.30;;;15.85;;
44147;SDS011;29810;55.848;37.368;2022-10-01T20:35:21;21.80;;;17.23;;
44147;SDS011;29810;55.848;37.368;2022-10-01T20:39:08;20.30;;;16.85;;
44147;SDS011;29810;55.848;37.368;2022-10-01T20:42:38;19.55;;;15.95;;
44147;SDS011;29810;55.848;37.368;2022-10-01T20:45:48;18.83;;;16.00;;
44147;SDS011;29810;55.848;37.368;2022-10-01T20:48:54;24.00;;;17.62;;
44147;SDS011;29810;55.848;37.368;2022-10-01T20:55:42;21.92;;;17.80;;
44147;SDS011;29810;55.848;37.368;2022-10-01T21:05:45;21.25;;;17.20;;
44147;SDS011;29810;55.848;37.368;2022-10-01T21:12:22;18.75;;;16.75;;
44147;SDS011;29810;55.848;37.368;2022-10-01T21:15:36;18.67;;;16.48;;
44147;SDS011;29810;55.848;37.368;2022-10-01T21:22:26;19.67;;;15.88;;
44147;SDS011;29810;55.848;37.368;2022-10-01T21:36:00;16.85;;;14.00;;
44147;SDS011;29810;55.848;37.368;2022-10-01T21:42:45;17.15;;;13.40;;